Time,TemperatureF,DewpointF,PressureIn,WindDirection,WindDirectionDegrees,WindSpeedMPH,WindSpeedGustMPH,Humidity,HourlyPrecipIn,Conditions,Clouds,dailyrainin,SoftwareType,DateUTC
2013-12-09 00:03:00,8.7,6.1,30.20,WSW,238,0.0,-999.0,89,0.00,,,0.00,Wunderground v.1.15,2013-12-09 06:03:00,
2013-12-09 00:08:00,8.5,5.9,30.20,WSW,238,0.0,-999.0,89,0.00,,,0.00,Wunderground v.1.15,2013-12-09 06:08:00,
2013-12-09 00:14:00,8.5,5.9,30.21,SW,214,0.0,-999.0,89,0.00,,,0.00,Wunderground v.1.15,2013-12-09 06:14:00,
2013-12-09 00:19:00,8.4,5.8,30.21,SW,233,0.0,-999.0,89,0.00,,,0.00,Wunderground v.1.15,2013-12-09 06:19:00,
2013-12-09 00:24:00,8.3,5.7,30.22,SW,233,0.0,-999.0,89,0.00,,,0.00,Wunderground v.1.15,2013-12-09 06:24:00,
2013-12-09 00:29:00,8.2,5.6,30.21,SW,233,0.0,-999.0,89,0.00,,,0.00,Wunderground v.1.15,2013-12-09 06:29:00,
2013-12-09 00:34:00,8.1,5.5,30.21,WSW,253,0.0,-999.0,89,0.00,,,0.00,Wunderground v.1.15,2013-12-09 06:34:00,
2013-12-09 00:39:00,7.9,5.3,30.21,WSW,253,0.0,-999.0,89,0.00,,,0.00,Wunderground v.1.15,2013-12-09 06:39:00,
2013-12-09 00:44:00,7.8,5.2,30.21,WSW,253,0.0,-999.0,89,0.00,,,0.00,Wunderground v.1.15,2013-12-09 06:44:00,
2013-12-09 00:50:00,7.8,5.2,30.20,West,279,0.0,-999.0,89,0.00,,,0.00,Wunderground v.1.15,2013-12-09 06:50:00,
2013-12-09 00:55:00,7.9,5.3,30.20,WNW,289,0.0,-999.0,89,0.00,,,0.00,Wunderground v.1.15,2013-12-09 06:55:00,
2013-12-09 01:00:00,8.0,5.4,30.20,West,279,0.0,-999.0,89,0.00,,,0.00,Wunderground v.1.15,2013-12-09 07:00:00,
2013-12-09 01:05:00,7.9,5.1,30.20,WSW,240,0.0,-999.0,88,0.00,,,0.00,Wunderground v.1.15,2013-12-09 07:05:00,
2013-12-09 01:10:00,7.7,4.9,30.20,West,267,0.0,-999.0,88,0.00,,,0.00,Wunderground v.1.15,2013-12-09 07:10:00,
2013-12-09 01:17:00,7.6,4.8,30.21,WSW,243,0.0,-999.0,88,0.00,,,0.00,Wunderground v.1.15,2013-12-09 07:17:00,
2013-12-09 01:22:00,7.3,4.5,30.22,WSW,242,0.0,-999.0,88,0.00,,,0.00,Wunderground v.1.15,2013-12-09 07:22:00,
2013-12-09 01:27:00,7.2,4.4,30.22,SSW,200,0.0,-999.0,88,0.00,,,0.00,Wunderground v.1.15,2013-12-09 07:27:00,
2013-12-09 01:32:00,7.0,4.2,30.22,SSW,203,0.0,-999.0,88,0.00,,,0.00,Wunderground v.1.15,2013-12-09 07:32:00,
2013-12-09 01:37:00,6.8,4.0,30.22,WSW,246,0.0,-999.0,88,0.00,,,0.00,Wunderground v.1.15,2013-12-09 07:37:00,
2013-12-09 01:42:00,6.7,3.9,30.22,West,280,0.0,-999.0,88,0.00,,,0.00,Wunderground v.1.15,2013-12-09 07:42:00,
2013-12-09 01:47:00,6.6,3.8,30.22,WNW,287,0.0,-999.0,88,0.00,,,0.00,Wunderground v.1.15,2013-12-09 07:47:00,
2013-12-09 01:52:00,6.5,3.5,30.22,WNW,288,0.0,-999.0,87,0.00,,,0.00,Wunderground v.1.15,2013-12-09 07:52:00,
2013-12-09 01:57:00,6.3,3.3,30.22,West,277,0.0,-999.0,87,0.00,,,0.00,Wunderground v.1.15,2013-12-09 07:57:00,
2013-12-09 02:03:00,6.2,3.2,30.23,West,274,0.0,-999.0,87,0.00,,,0.00,Wunderground v.1.15,2013-12-09 08:03:00,
2013-12-09 02:08:00,6.2,3.2,30.23,WNW,284,0.0,-999.0,87,0.00,,,0.00,Wunderground v.1.15,2013-12-09 08:08:00,
2013-12-09 02:13:00,6.2,3.2,30.23,NNW,346,0.0,-999.0,87,0.00,,,0.00,Wunderground v.1.15,2013-12-09 08:13:00,
2013-12-09 02:18:00,6.2,3.2,30.23,West,269,0.0,-999.0,87,0.00,,,0.00,Wunderground v.1.15,2013-12-09 08:18:00,
2013-12-09 02:22:00,6.3,3.3,30.23,West,271,0.0,-999.0,87,0.00,,,0.00,Wunderground v.1.15,2013-12-09 08:22:00,
2013-12-09 02:27:00,6.4,3.1,30.23,West,280,1.0,-999.0,86,0.00,,,0.00,Wunderground v.1.15,2013-12-09 08:27:00,
2013-12-09 02:32:00,6.4,3.1,30.23,WNW,295,0.0,-999.0,86,0.00,,,0.00,Wunderground v.1.15,2013-12-09 08:32:00,
2013-12-09 02:38:00,6.3,2.8,30.24,West,262,0.0,-999.0,85,0.00,,,0.00,Wunderground v.1.15,2013-12-09 08:38:00,
2013-12-09 02:43:00,6.1,2.3,30.24,West,277,0.0,-999.0,84,0.00,,,0.00,Wunderground v.1.15,2013-12-09 08:43:00,
2013-12-09 02:48:00,5.9,2.1,30.25,WNW,294,0.0,-999.0,84,0.00,,,0.00,Wunderground v.1.15,2013-12-09 08:48:00,
2013-12-09 02:53:00,5.8,1.8,30.25,West,274,0.0,-999.0,83,0.00,,,0.00,Wunderground v.1.15,2013-12-09 08:53:00,
2013-12-09 02:56:00,5.6,1.6,30.25,West,268,0.0,-999.0,83,0.00,,,0.00,Wunderground v.1.15,2013-12-09 08:56:00,
2013-12-09 03:01:00,5.5,1.5,30.26,West,266,0.0,-999.0,83,0.00,,,0.00,Wunderground v.1.15,2013-12-09 09:01:00,
2013-12-09 03:06:00,5.3,1.3,30.26,WNW,290,0.0,-999.0,83,0.00,,,0.00,Wunderground v.1.15,2013-12-09 09:06:00,
2013-12-09 03:11:00,5.1,1.1,30.26,West,267,0.0,-999.0,83,0.00,,,0.00,Wunderground v.1.15,2013-12-09 09:11:00,
2013-12-09 03:16:00,4.8,0.8,30.26,West,259,0.0,-999.0,83,0.00,,,0.00,Wunderground v.1.15,2013-12-09 09:16:00,
2013-12-09 03:21:00,4.6,0.6,30.26,WNW,300,0.0,-999.0,83,0.00,,,0.00,Wunderground v.1.15,2013-12-09 09:21:00,
2013-12-09 03:26:00,4.4,0.4,30.26,West,271,0.0,-999.0,83,0.00,,,0.00,Wunderground v.1.15,2013-12-09 09:26:00,
2013-12-09 03:31:00,4.3,0.3,30.25,West,277,0.0,-999.0,83,0.00,,,0.00,Wunderground v.1.15,2013-12-09 09:31:00,
2013-12-09 03:36:00,4.0,0.0,30.25,West,277,0.0,-999.0,83,0.00,,,0.00,Wunderground v.1.15,2013-12-09 09:36:00,
2013-12-09 03:41:00,3.8,-0.2,30.25,WNW,297,0.0,-999.0,83,0.00,,,0.00,Wunderground v.1.15,2013-12-09 09:41:00,
2013-12-09 03:46:00,3.5,-0.5,30.25,West,276,0.0,-999.0,83,0.00,,,0.00,Wunderground v.1.15,2013-12-09 09:46:00,
2013-12-09 03:51:00,3.3,-0.7,30.25,West,281,0.0,-999.0,83,0.00,,,0.00,Wunderground v.1.15,2013-12-09 09:51:00,
2013-12-09 03:56:00,3.0,-1.0,30.25,WNW,284,0.0,-999.0,83,0.00,,,0.00,Wunderground v.1.15,2013-12-09 09:56:00,
2013-12-09 04:01:00,2.9,-1.1,30.26,West,278,0.0,-999.0,83,0.00,,,0.00,Wunderground v.1.15,2013-12-09 10:01:00,
2013-12-09 04:06:00,2.7,-1.5,30.26,West,273,0.0,-999.0,82,0.00,,,0.00,Wunderground v.1.15,2013-12-09 10:06:00,
2013-12-09 04:11:00,2.6,-1.6,30.26,WNW,284,0.0,-999.0,82,0.00,,,0.00,Wunderground v.1.15,2013-12-09 10:11:00,
2013-12-09 04:16:00,2.4,-1.8,30.26,WNW,290,0.0,-999.0,82,0.00,,,0.00,Wunderground v.1.15,2013-12-09 10:16:00,
2013-12-09 04:21:00,2.2,-2.0,30.27,West,280,0.0,-999.0,82,0.00,,,0.00,Wunderground v.1.15,2013-12-09 10:21:00,
2013-12-09 04:26:00,2.2,-2.3,30.27,WNW,300,0.0,-999.0,81,0.00,,,0.00,Wunderground v.1.15,2013-12-09 10:26:00,
2013-12-09 04:31:00,2.2,-2.3,30.27,WNW,293,0.0,-999.0,81,0.00,,,0.00,Wunderground v.1.15,2013-12-09 10:31:00,
2013-12-09 04:36:00,2.1,-2.7,30.27,WNW,283,0.0,-999.0,80,0.00,,,0.00,Wunderground v.1.15,2013-12-09 10:36:00,
2013-12-09 04:41:00,2.0,-2.8,30.28,West,260,0.0,-999.0,80,0.00,,,0.00,Wunderground v.1.15,2013-12-09 10:41:00,
2013-12-09 04:46:00,1.9,-2.8,30.28,West,280,0.0,-999.0,80,0.00,,,0.00,Wunderground v.1.15,2013-12-09 10:46:00,
2013-12-09 04:51:00,1.8,-2.9,30.28,WNW,283,0.0,-999.0,80,0.00,,,0.00,Wunderground v.1.15,2013-12-09 10:51:00,
2013-12-09 04:56:00,1.6,-3.4,30.29,West,267,0.0,-999.0,79,0.00,,,0.00,Wunderground v.1.15,2013-12-09 10:56:00,
2013-12-09 05:01:00,1.4,-3.6,30.30,West,267,0.0,-999.0,79,0.00,,,0.00,Wunderground v.1.15,2013-12-09 11:01:00,
2013-12-09 05:06:00,1.3,-3.7,30.30,SW,224,0.0,-999.0,79,0.00,,,0.00,Wunderground v.1.15,2013-12-09 11:06:00,
2013-12-09 05:11:00,1.1,-3.9,30.30,SSE,150,0.0,-999.0,79,0.00,,,0.00,Wunderground v.1.15,2013-12-09 11:11:00,
2013-12-09 05:16:00,0.9,-4.1,30.30,SSW,208,0.0,-999.0,79,0.00,,,0.00,Wunderground v.1.15,2013-12-09 11:16:00,
2013-12-09 05:21:00,0.7,-4.3,30.31,South,187,0.0,-999.0,79,0.00,,,0.00,Wunderground v.1.15,2013-12-09 11:21:00,
2013-12-09 05:26:00,0.7,-4.3,30.31,SSW,201,0.0,-999.0,79,0.00,,,0.00,Wunderground v.1.15,2013-12-09 11:26:00,
2013-12-09 05:31:00,0.6,-4.4,30.31,West,264,0.0,-999.0,79,0.00,,,0.00,Wunderground v.1.15,2013-12-09 11:31:00,
2013-12-09 05:36:00,0.4,-4.6,30.32,West,276,0.0,-999.0,79,0.00,,,0.00,Wunderground v.1.15,2013-12-09 11:36:00,
2013-12-09 05:41:00,0.2,-4.8,30.32,SSW,211,0.0,-999.0,79,0.00,,,0.00,Wunderground v.1.15,2013-12-09 11:41:00,
2013-12-09 05:46:00,0.1,-5.1,30.32,West,274,0.0,-999.0,78,0.00,,,0.00,Wunderground v.1.15,2013-12-09 11:46:00,
2013-12-09 05:51:00,0.0,-5.0,30.33,West,274,0.0,-999.0,79,0.00,,,0.00,Wunderground v.1.15,2013-12-09 11:51:00,
2013-12-09 05:56:00,-0.2,-5.2,30.33,West,262,0.0,-999.0,79,0.00,,,0.00,Wunderground v.1.15,2013-12-09 11:56:00,
2013-12-09 06:01:00,-0.3,-5.5,30.33,West,271,0.0,-999.0,78,0.00,,,0.00,Wunderground v.1.15,2013-12-09 12:01:00,
2013-12-09 06:06:00,-0.3,-5.5,30.34,SSW,210,0.0,-999.0,78,0.00,,,0.00,Wunderground v.1.15,2013-12-09 12:06:00,
2013-12-09 06:11:00,-0.4,-5.6,30.34,WNW,295,0.0,-999.0,78,0.00,,,0.00,Wunderground v.1.15,2013-12-09 12:11:00,
2013-12-09 06:16:00,-0.4,-5.6,30.33,West,278,0.0,-999.0,78,0.00,,,0.00,Wunderground v.1.15,2013-12-09 12:16:00,
2013-12-09 06:21:00,-0.3,-5.5,30.33,West,274,0.0,-999.0,78,0.00,,,0.00,Wunderground v.1.15,2013-12-09 12:21:00,
2013-12-09 06:26:00,-0.1,-5.3,30.33,West,278,0.0,-999.0,78,0.00,,,0.00,Wunderground v.1.15,2013-12-09 12:26:00,
2013-12-09 06:31:00,-0.2,-5.4,30.33,WNW,300,0.0,-999.0,78,0.00,,,0.00,Wunderground v.1.15,2013-12-09 12:31:00,
2013-12-09 06:36:00,-0.1,-5.1,30.33,West,277,0.0,-999.0,79,0.00,,,0.00,Wunderground v.1.15,2013-12-09 12:36:00,
2013-12-09 06:41:00,0.0,-5.2,30.34,NW,308,0.0,-999.0,78,0.00,,,0.00,Wunderground v.1.15,2013-12-09 12:41:00,
2013-12-09 06:46:00,0.1,-5.1,30.33,West,266,0.0,-999.0,78,0.00,,,0.00,Wunderground v.1.15,2013-12-09 12:46:00,
2013-12-09 06:51:00,0.0,-5.2,30.33,North,357,0.0,-999.0,78,0.00,,,0.00,Wunderground v.1.15,2013-12-09 12:51:00,
2013-12-09 06:56:00,-0.1,-5.3,30.33,NW,316,0.0,-999.0,78,0.00,,,0.00,Wunderground v.1.15,2013-12-09 12:56:00,
2013-12-09 07:01:00,-0.2,-5.4,30.33,NW,306,0.0,-999.0,78,0.00,,,0.00,Wunderground v.1.15,2013-12-09 13:01:00,
2013-12-09 07:06:00,-0.4,-5.6,30.34,WNW,301,0.0,-999.0,78,0.00,,,0.00,Wunderground v.1.15,2013-12-09 13:06:00,
2013-12-09 07:11:00,-0.7,-5.9,30.34,West,270,0.0,-999.0,78,0.00,,,0.00,Wunderground v.1.15,2013-12-09 13:11:00,
2013-12-09 07:16:00,-0.9,-6.1,30.35,West,278,0.0,-999.0,78,0.00,,,0.00,Wunderground v.1.15,2013-12-09 13:16:00,
2013-12-09 07:21:00,-0.9,-6.1,30.35,WNW,283,0.0,-999.0,78,0.00,,,0.00,Wunderground v.1.15,2013-12-09 13:21:00,
2013-12-09 07:26:00,-0.9,-6.4,30.35,West,278,0.0,-999.0,77,0.00,,,0.00,Wunderground v.1.15,2013-12-09 13:26:00,
2013-12-09 07:31:00,-1.0,-6.2,30.35,WNW,287,0.0,-999.0,78,0.00,,,0.00,Wunderground v.1.15,2013-12-09 13:31:00,
2013-12-09 07:36:00,-0.9,-6.1,30.35,West,281,0.0,-999.0,78,0.00,,,0.00,Wunderground v.1.15,2013-12-09 13:36:00,
2013-12-09 07:41:00,-0.9,-6.1,30.35,WNW,289,0.0,-999.0,78,0.00,,,0.00,Wunderground v.1.15,2013-12-09 13:41:00,
2013-12-09 07:46:00,-0.8,-6.3,30.36,WNW,294,0.0,-999.0,77,0.00,,,0.00,Wunderground v.1.15,2013-12-09 13:46:00,
2013-12-09 07:51:00,-0.8,-6.3,30.36,West,276,0.0,-999.0,77,0.00,,,0.00,Wunderground v.1.15,2013-12-09 13:51:00,
2013-12-09 07:56:00,-0.8,-6.3,30.37,West,269,0.0,-999.0,77,0.00,,,0.00,Wunderground v.1.15,2013-12-09 13:56:00,
2013-12-09 08:01:00,-0.8,-6.3,30.37,WNW,284,0.0,-999.0,77,0.00,,,0.00,Wunderground v.1.15,2013-12-09 14:01:00,
2013-12-09 08:06:00,-0.9,-6.4,30.38,West,275,0.0,-999.0,77,0.00,,,0.00,Wunderground v.1.15,2013-12-09 14:06:00,
2013-12-09 08:11:00,-0.9,-6.4,30.37,WNW,284,0.0,-999.0,77,0.00,,,0.00,Wunderground v.1.15,2013-12-09 14:11:00,
2013-12-09 08:16:00,-0.9,-6.4,30.38,WNW,283,0.0,-999.0,77,0.00,,,0.00,Wunderground v.1.15,2013-12-09 14:16:00,
2013-12-09 08:21:00,-0.8,-6.3,30.38,West,281,0.0,-999.0,77,0.00,,,0.00,Wunderground v.1.15,2013-12-09 14:21:00,
2013-12-09 08:26:00,-0.7,-6.2,30.38,West,281,0.0,-999.0,77,0.00,,,0.00,Wunderground v.1.15,2013-12-09 14:26:00,
2013-12-09 08:31:00,-0.5,-5.7,30.38,West,275,0.0,-999.0,78,0.00,,,0.00,Wunderground v.1.15,2013-12-09 14:31:00,
2013-12-09 08:36:00,-0.4,-5.9,30.38,West,260,0.0,-999.0,77,0.00,,,0.00,Wunderground v.1.15,2013-12-09 14:36:00,
2013-12-09 08:41:00,-0.3,-6.1,30.38,WNW,290,0.0,-999.0,76,0.00,,,0.00,Wunderground v.1.15,2013-12-09 14:41:00,
2013-12-09 08:46:00,-0.1,-5.6,30.38,WSW,255,0.0,-999.0,77,0.00,,,0.00,Wunderground v.1.15,2013-12-09 14:46:00,
2013-12-09 08:51:00,0.0,-5.8,30.39,West,277,1.0,-999.0,76,0.00,,,0.00,Wunderground v.1.15,2013-12-09 14:51:00,
2013-12-09 08:56:00,0.1,-5.7,30.39,West,279,0.0,-999.0,76,0.00,,,0.00,Wunderground v.1.15,2013-12-09 14:56:00,
2013-12-09 09:01:00,0.4,-5.4,30.39,West,263,0.0,-999.0,76,0.00,,,0.00,Wunderground v.1.15,2013-12-09 15:01:00,
2013-12-09 09:06:00,0.6,-5.2,30.39,WNW,289,0.0,-999.0,76,0.00,,,0.00,Wunderground v.1.15,2013-12-09 15:06:00,
2013-12-09 09:11:00,0.9,-4.9,30.39,WNW,297,0.0,-999.0,76,0.00,,,0.00,Wunderground v.1.15,2013-12-09 15:11:00,
2013-12-09 09:16:00,1.4,-4.4,30.38,WNW,283,0.0,-999.0,76,0.00,,,0.00,Wunderground v.1.15,2013-12-09 15:16:00,
2013-12-09 09:21:00,1.9,-3.9,30.38,WNW,293,1.0,-999.0,76,0.00,,,0.00,Wunderground v.1.15,2013-12-09 15:21:00,
2013-12-09 09:26:00,2.5,-3.3,30.39,NNW,328,0.0,-999.0,76,0.00,,,0.00,Wunderground v.1.15,2013-12-09 15:26:00,
2013-12-09 09:31:00,2.8,-3.3,30.39,WNW,284,0.0,-999.0,75,0.00,,,0.00,Wunderground v.1.15,2013-12-09 15:31:00,
2013-12-09 09:36:00,3.0,-3.4,30.39,NW,312,0.0,-999.0,74,0.00,,,0.00,Wunderground v.1.15,2013-12-09 15:36:00,
2013-12-09 09:41:00,3.3,-3.1,30.40,West,277,1.0,-999.0,74,0.00,,,0.00,Wunderground v.1.15,2013-12-09 15:41:00,
2013-12-09 09:46:00,3.4,-2.7,30.40,West,279,1.0,-999.0,75,0.00,,,0.00,Wunderground v.1.15,2013-12-09 15:46:00,
2013-12-09 09:51:00,3.7,-2.7,30.40,NW,308,0.0,-999.0,74,0.00,,,0.00,Wunderground v.1.15,2013-12-09 15:51:00,
2013-12-09 09:56:00,3.8,-2.9,30.40,NW,305,0.0,-999.0,73,0.00,,,0.00,Wunderground v.1.15,2013-12-09 15:56:00,
2013-12-09 10:01:00,4.1,-2.6,30.41,West,281,0.0,-999.0,73,0.00,,,0.00,Wunderground v.1.15,2013-12-09 16:01:00,
2013-12-09 10:06:00,4.4,-2.6,30.41,WNW,289,3.0,-999.0,72,0.00,,,0.00,Wunderground v.1.15,2013-12-09 16:06:00,
2013-12-09 10:11:00,4.6,-2.4,30.41,WNW,298,0.0,-999.0,72,0.00,,,0.00,Wunderground v.1.15,2013-12-09 16:11:00,
2013-12-09 10:16:00,5.0,-2.1,30.41,WNW,294,2.0,-999.0,72,0.00,,,0.00,Wunderground v.1.15,2013-12-09 16:16:00,
2013-12-09 10:21:00,4.9,-2.5,30.41,WNW,298,2.0,-999.0,71,0.00,,,0.00,Wunderground v.1.15,2013-12-09 16:21:00,
2013-12-09 10:26:00,5.2,-2.5,30.41,WNW,300,1.0,-999.0,70,0.00,,,0.00,Wunderground v.1.15,2013-12-09 16:26:00,
2013-12-09 10:31:00,5.1,-2.6,30.41,WNW,284,0.0,-999.0,70,0.00,,,0.00,Wunderground v.1.15,2013-12-09 16:31:00,
2013-12-09 10:36:00,5.5,-2.2,30.41,West,274,0.0,-999.0,70,0.00,,,0.00,Wunderground v.1.15,2013-12-09 16:36:00,
2013-12-09 10:41:00,5.7,-2.0,30.41,NNW,329,0.0,-999.0,70,0.00,,,0.00,Wunderground v.1.15,2013-12-09 16:41:00,
2013-12-09 10:46:00,6.0,-2.3,30.42,West,278,1.0,-999.0,68,0.00,,,0.00,Wunderground v.1.15,2013-12-09 16:46:00,
2013-12-09 10:51:00,6.4,-1.6,30.42,West,281,0.0,-999.0,69,0.00,,,0.00,Wunderground v.1.15,2013-12-09 16:51:00,
2013-12-09 10:56:00,6.3,-2.0,30.42,WSW,249,0.0,-999.0,68,0.00,,,0.00,Wunderground v.1.15,2013-12-09 16:56:00,
2013-12-09 11:01:00,6.7,-1.3,30.42,West,267,0.0,-999.0,69,0.00,,,0.00,Wunderground v.1.15,2013-12-09 17:01:00,
2013-12-09 11:06:00,7.3,-0.4,30.42,WNW,296,0.0,-999.0,70,0.00,,,0.00,Wunderground v.1.15,2013-12-09 17:06:00,
2013-12-09 11:11:00,7.6,-1.4,30.41,NW,309,0.0,-999.0,66,0.00,,,0.00,Wunderground v.1.15,2013-12-09 17:11:00,
2013-12-09 11:16:00,8.1,0.0,30.41,WNW,291,2.0,-999.0,69,0.00,,,0.00,Wunderground v.1.15,2013-12-09 17:16:00,
2013-12-09 11:21:00,7.5,-1.8,30.41,WNW,287,2.0,-999.0,65,0.00,,,0.00,Wunderground v.1.15,2013-12-09 17:21:00,
2013-12-09 11:26:00,7.8,-0.3,30.41,West,280,0.0,-999.0,69,0.00,,,0.00,Wunderground v.1.15,2013-12-09 17:26:00,
2013-12-09 11:31:00,7.9,-1.1,30.41,North,11,0.0,-999.0,66,0.00,,,0.00,Wunderground v.1.15,2013-12-09 17:31:00,
2013-12-09 11:36:00,8.2,-0.8,30.41,West,278,0.0,-999.0,66,0.00,,,0.00,Wunderground v.1.15,2013-12-09 17:36:00,
2013-12-09 11:41:00,8.3,-0.7,30.41,WNW,294,1.0,-999.0,66,0.00,,,0.00,Wunderground v.1.15,2013-12-09 17:41:00,
2013-12-09 11:46:00,8.3,-0.4,30.40,West,277,1.0,-999.0,67,0.00,,,0.00,Wunderground v.1.15,2013-12-09 17:46:00,
2013-12-09 11:51:00,8.7,0.0,30.39,NNW,345,0.0,-999.0,67,0.00,,,0.00,Wunderground v.1.15,2013-12-09 17:51:00,
2013-12-09 11:56:00,8.6,-0.8,30.39,NNW,335,0.0,-999.0,65,0.00,,,0.00,Wunderground v.1.15,2013-12-09 17:56:00,
2013-12-09 12:01:00,9.5,1.1,30.39,NNW,340,0.0,-999.0,68,0.00,,,0.00,Wunderground v.1.15,2013-12-09 18:01:00,
2013-12-09 12:06:00,10.0,0.9,30.39,North,350,1.0,-999.0,66,0.00,,,0.00,Wunderground v.1.15,2013-12-09 18:06:00,
2013-12-09 12:11:00,9.8,-0.6,30.39,WNW,294,1.0,-999.0,62,0.00,,,0.00,Wunderground v.1.15,2013-12-09 18:11:00,
2013-12-09 12:16:00,9.9,0.8,30.39,NNW,341,3.0,-999.0,66,0.00,,,0.00,Wunderground v.1.15,2013-12-09 18:16:00,
2013-12-09 12:21:00,9.8,0.0,30.38,WNW,287,0.0,-999.0,64,0.00,,,0.00,Wunderground v.1.15,2013-12-09 18:21:00,
2013-12-09 12:26:00,10.0,0.6,30.38,WNW,293,0.0,-999.0,65,0.00,,,0.00,Wunderground v.1.15,2013-12-09 18:26:00,
2013-12-09 12:31:00,10.1,0.3,30.38,WNW,300,2.0,-999.0,64,0.00,,,0.00,Wunderground v.1.15,2013-12-09 18:31:00,
2013-12-09 12:36:00,10.3,0.9,30.38,NNW,340,1.0,-999.0,65,0.00,,,0.00,Wunderground v.1.15,2013-12-09 18:36:00,
2013-12-09 12:41:00,10.7,0.6,30.38,West,275,0.0,-999.0,63,0.00,,,0.00,Wunderground v.1.15,2013-12-09 18:41:00,
2013-12-09 12:46:00,10.9,1.1,30.38,West,274,0.0,-999.0,64,0.00,,,0.00,Wunderground v.1.15,2013-12-09 18:46:00,
2013-12-09 12:51:00,11.7,1.5,30.38,West,277,0.0,-999.0,63,0.00,,,0.00,Wunderground v.1.15,2013-12-09 18:51:00,
2013-12-09 12:56:00,11.8,0.6,30.38,NW,319,0.0,-999.0,60,0.00,,,0.00,Wunderground v.1.15,2013-12-09 18:56:00,
2013-12-09 13:01:00,11.6,1.1,30.38,West,273,0.0,-999.0,62,0.00,,,0.00,Wunderground v.1.15,2013-12-09 19:01:00,
2013-12-09 13:06:00,11.5,0.6,30.38,WNW,294,2.0,-999.0,61,0.00,,,0.00,Wunderground v.1.15,2013-12-09 19:06:00,
2013-12-09 13:11:00,12.0,2.1,30.38,WNW,300,0.0,-999.0,64,0.00,,,0.00,Wunderground v.1.15,2013-12-09 19:11:00,
2013-12-09 13:16:00,12.8,1.5,30.38,SSW,212,0.0,-999.0,60,0.00,,,0.00,Wunderground v.1.15,2013-12-09 19:16:00,
2013-12-09 13:21:00,12.4,0.4,30.37,South,174,1.0,-999.0,58,0.00,,,0.00,Wunderground v.1.15,2013-12-09 19:21:00,
2013-12-09 13:26:00,12.2,0.9,30.37,SSW,207,1.0,-999.0,60,0.00,,,0.00,Wunderground v.1.15,2013-12-09 19:26:00,
2013-12-09 13:31:00,12.1,0.9,30.37,SW,219,1.0,-999.0,60,0.00,,,0.00,Wunderground v.1.15,2013-12-09 19:31:00,
2013-12-09 13:36:00,11.7,0.5,30.36,SSW,194,3.0,-999.0,60,0.00,,,0.00,Wunderground v.1.15,2013-12-09 19:36:00,
2013-12-09 13:41:00,11.5,1.0,30.36,SSE,167,4.0,-999.0,62,0.00,,,0.00,Wunderground v.1.15,2013-12-09 19:41:00,
2013-12-09 13:46:00,10.7,0.2,30.36,South,190,3.0,-999.0,62,0.00,,,0.00,Wunderground v.1.15,2013-12-09 19:46:00,
2013-12-09 13:51:00,10.7,0.6,30.36,SSE,162,3.0,-999.0,63,0.00,,,0.00,Wunderground v.1.15,2013-12-09 19:51:00,
2013-12-09 13:56:00,10.8,1.0,30.36,South,177,5.0,-999.0,64,0.00,,,0.00,Wunderground v.1.15,2013-12-09 19:56:00,
2013-12-09 14:01:00,11.0,0.9,30.36,WSW,242,1.0,-999.0,63,0.00,,,0.00,Wunderground v.1.15,2013-12-09 20:01:00,
2013-12-09 14:06:00,11.3,1.5,30.36,SSE,167,0.0,-999.0,64,0.00,,,0.00,Wunderground v.1.15,2013-12-09 20:06:00,
2013-12-09 14:11:00,11.5,1.0,30.36,South,172,4.0,-999.0,62,0.00,,,0.00,Wunderground v.1.15,2013-12-09 20:11:00,
2013-12-09 14:16:00,11.3,0.8,30.35,South,173,1.0,-999.0,62,0.00,,,0.00,Wunderground v.1.15,2013-12-09 20:16:00,
2013-12-09 14:21:00,11.2,0.0,30.35,South,188,4.0,-999.0,60,0.00,,,0.00,Wunderground v.1.15,2013-12-09 20:21:00,
2013-12-09 14:26:00,10.9,0.1,30.35,SSE,150,1.0,-999.0,61,0.00,,,0.00,Wunderground v.1.15,2013-12-09 20:26:00,
2013-12-09 14:31:00,11.2,0.7,30.35,SSE,162,2.0,-999.0,62,0.00,,,0.00,Wunderground v.1.15,2013-12-09 20:31:00,
2013-12-09 14:36:00,11.3,0.1,30.35,SSE,153,2.0,-999.0,60,0.00,,,0.00,Wunderground v.1.15,2013-12-09 20:36:00,
2013-12-09 14:41:00,11.5,0.3,30.35,SSE,160,2.0,-999.0,60,0.00,,,0.00,Wunderground v.1.15,2013-12-09 20:41:00,
2013-12-09 14:46:00,11.8,0.9,30.35,SSW,197,4.0,-999.0,61,0.00,,,0.00,Wunderground v.1.15,2013-12-09 20:46:00,
2013-12-09 14:51:00,11.3,0.1,30.35,SSW,212,1.0,-999.0,60,0.00,,,0.00,Wunderground v.1.15,2013-12-09 20:51:00,
2013-12-09 14:56:00,10.8,0.0,30.34,SSE,163,6.0,-999.0,61,0.00,,,0.00,Wunderground v.1.15,2013-12-09 20:56:00,
2013-12-09 15:01:00,10.4,-0.1,30.34,SSE,155,4.0,-999.0,62,0.00,,,0.00,Wunderground v.1.15,2013-12-09 21:01:00,
2013-12-09 15:06:00,10.4,-0.1,30.34,South,177,3.0,-999.0,62,0.00,,,0.00,Wunderground v.1.15,2013-12-09 21:06:00,
2013-12-09 15:11:00,10.5,0.0,30.34,SSE,163,4.0,-999.0,62,0.00,,,0.00,Wunderground v.1.15,2013-12-09 21:11:00,
2013-12-09 15:16:00,10.3,-0.5,30.34,SSE,163,3.0,-999.0,61,0.00,,,0.00,Wunderground v.1.15,2013-12-09 21:16:00,
2013-12-09 15:21:00,10.1,-0.3,30.34,SSE,166,8.0,-999.0,62,0.00,,,0.00,Wunderground v.1.15,2013-12-09 21:21:00,
2013-12-09 15:26:00,10.0,-0.1,30.33,SSE,165,8.0,-999.0,63,0.00,,,0.00,Wunderground v.1.15,2013-12-09 21:26:00,
2013-12-09 15:31:00,9.8,0.0,30.33,SSE,166,10.0,-999.0,64,0.00,,,0.00,Wunderground v.1.15,2013-12-09 21:31:00,
2013-12-09 15:36:00,9.6,0.2,30.33,SSE,165,6.0,-999.0,65,0.00,,,0.00,Wunderground v.1.15,2013-12-09 21:36:00,
2013-12-09 15:41:00,9.4,0.3,30.33,SSE,168,3.0,-999.0,66,0.00,,,0.00,Wunderground v.1.15,2013-12-09 21:41:00,
2013-12-09 15:46:00,9.4,0.3,30.33,South,172,9.0,-999.0,66,0.00,,,0.00,Wunderground v.1.15,2013-12-09 21:46:00,
2013-12-09 15:51:00,9.2,-0.2,30.34,SSE,153,5.0,-999.0,65,0.00,,,0.00,Wunderground v.1.15,2013-12-09 21:51:00,
2013-12-09 15:56:00,9.0,-0.1,30.33,SSE,162,7.0,-999.0,66,0.00,,,0.00,Wunderground v.1.15,2013-12-09 21:56:00,
2013-12-09 16:01:00,8.7,-0.3,30.33,SSE,155,3.0,-999.0,66,0.00,,,0.00,Wunderground v.1.15,2013-12-09 22:01:00,
2013-12-09 16:06:00,8.4,-0.6,30.34,SSE,165,6.0,-999.0,66,0.00,,,0.00,Wunderground v.1.15,2013-12-09 22:06:00,
2013-12-09 16:11:00,8.1,-0.6,30.33,SSE,160,3.0,-999.0,67,0.00,,,0.00,Wunderground v.1.15,2013-12-09 22:11:00,
2013-12-09 16:16:00,7.8,-0.6,30.33,SSW,195,4.0,-999.0,68,0.00,,,0.00,Wunderground v.1.15,2013-12-09 22:16:00,
2013-12-09 16:21:00,7.6,-0.8,30.33,SE,146,3.0,-999.0,68,0.00,,,0.00,Wunderground v.1.15,2013-12-09 22:21:00,
2013-12-09 16:26:00,7.4,-1.0,30.33,SSE,165,4.0,-999.0,68,0.00,,,0.00,Wunderground v.1.15,2013-12-09 22:26:00,
2013-12-09 16:31:00,7.2,-1.2,30.32,SSE,163,5.0,-999.0,68,0.00,,,0.00,Wunderground v.1.15,2013-12-09 22:31:00,
2013-12-09 16:36:00,6.9,-0.8,30.33,South,169,4.0,-999.0,70,0.00,,,0.00,Wunderground v.1.15,2013-12-09 22:36:00,
2013-12-09 16:41:00,6.6,-1.1,30.33,SSE,168,5.0,-999.0,70,0.00,,,0.00,Wunderground v.1.15,2013-12-09 22:41:00,
2013-12-09 16:46:00,6.4,-1.3,30.32,SSE,168,3.0,-999.0,70,0.00,,,0.00,Wunderground v.1.15,2013-12-09 22:46:00,
2013-12-09 16:51:00,6.2,-1.5,30.32,South,190,3.0,-999.0,70,0.00,,,0.00,Wunderground v.1.15,2013-12-09 22:51:00,
2013-12-09 16:56:00,5.9,-1.5,30.32,SSE,162,2.0,-999.0,71,0.00,,,0.00,Wunderground v.1.15,2013-12-09 22:56:00,
2013-12-09 17:01:00,5.7,-1.7,30.32,SSE,165,3.0,-999.0,71,0.00,,,0.00,Wunderground v.1.15,2013-12-09 23:01:00,
2013-12-09 17:06:00,5.5,-1.9,30.32,SSE,165,1.0,-999.0,71,0.00,,,0.00,Wunderground v.1.15,2013-12-09 23:06:00,
2013-12-09 17:11:00,5.5,-1.6,30.31,SSE,160,1.0,-999.0,72,0.00,,,0.00,Wunderground v.1.15,2013-12-09 23:11:00,
2013-12-09 17:16:00,5.5,-1.3,30.31,SSE,165,2.0,-999.0,73,0.00,,,0.00,Wunderground v.1.15,2013-12-09 23:16:00,
2013-12-09 17:21:00,5.2,-1.6,30.31,South,179,3.0,-999.0,73,0.00,,,0.00,Wunderground v.1.15,2013-12-09 23:21:00,
2013-12-09 17:26:00,4.7,-2.3,30.31,SSE,156,1.0,-999.0,72,0.00,,,0.00,Wunderground v.1.15,2013-12-09 23:26:00,
2013-12-09 17:31:00,4.4,-2.3,30.31,SSE,162,1.0,-999.0,73,0.00,,,0.00,Wunderground v.1.15,2013-12-09 23:31:00,
2013-12-09 17:36:00,4.4,-2.1,30.30,SSE,168,3.0,-999.0,74,0.00,,,0.00,Wunderground v.1.15,2013-12-09 23:36:00,
2013-12-09 17:41:00,4.3,-2.2,30.30,SSE,165,3.0,-999.0,74,0.00,,,0.00,Wunderground v.1.15,2013-12-09 23:41:00,
2013-12-09 17:46:00,4.2,-2.3,30.31,SSE,162,1.0,-999.0,74,0.00,,,0.00,Wunderground v.1.15,2013-12-09 23:46:00,
2013-12-09 17:51:00,4.5,-1.7,30.31,SSE,158,2.0,-999.0,75,0.00,,,0.00,Wunderground v.1.15,2013-12-09 23:51:00,
2013-12-09 17:56:00,4.5,-1.7,30.30,South,169,1.0,-999.0,75,0.00,,,0.00,Wunderground v.1.15,2013-12-09 23:56:00,
2013-12-09 18:01:00,4.3,-1.9,30.30,SSE,156,1.0,-999.0,75,0.00,,,0.00,Wunderground v.1.15,2013-12-10 00:01:00,
2013-12-09 18:06:00,4.2,-1.7,30.30,SSE,156,2.0,-999.0,76,0.00,,,0.00,Wunderground v.1.15,2013-12-10 00:06:00,
2013-12-09 18:11:00,4.0,-2.2,30.30,SSE,166,3.0,-999.0,75,0.00,,,0.00,Wunderground v.1.15,2013-12-10 00:11:00,
2013-12-09 18:16:00,3.6,-2.6,30.30,SSE,165,2.0,-999.0,75,0.00,,,0.00,Wunderground v.1.15,2013-12-10 00:16:00,
2013-12-09 18:21:00,3.5,-2.1,30.30,South,188,0.0,-999.0,77,0.00,,,0.00,Wunderground v.1.15,2013-12-10 00:21:00,
2013-12-09 18:26:00,3.5,-1.8,30.30,SSE,148,0.0,-999.0,78,0.00,,,0.00,Wunderground v.1.15,2013-12-10 00:26:00,
2013-12-09 18:31:00,3.3,-2.6,30.31,SSE,157,1.0,-999.0,76,0.00,,,0.00,Wunderground v.1.15,2013-12-10 00:31:00,
2013-12-09 18:36:00,2.6,-3.2,30.30,SSE,159,2.0,-999.0,76,0.00,,,0.00,Wunderground v.1.15,2013-12-10 00:36:00,
2013-12-09 18:41:00,2.3,-3.5,30.30,SSE,159,1.0,-999.0,76,0.00,,,0.00,Wunderground v.1.15,2013-12-10 00:41:00,
2013-12-09 18:46:00,2.2,-3.1,30.30,SE,144,1.0,-999.0,78,0.00,,,0.00,Wunderground v.1.15,2013-12-10 00:46:00,
2013-12-09 18:51:00,2.5,-2.3,30.30,SSE,163,1.0,-999.0,80,0.00,,,0.00,Wunderground v.1.15,2013-12-10 00:51:00,
2013-12-09 18:56:00,2.1,-3.2,30.31,SSE,165,3.0,-999.0,78,0.00,,,0.00,Wunderground v.1.15,2013-12-10 00:56:00,
2013-12-09 19:01:00,2.1,-3.2,30.31,SSE,167,4.0,-999.0,78,0.00,,,0.00,Wunderground v.1.15,2013-12-10 01:01:00,
2013-12-09 19:06:00,2.0,-3.6,30.30,SSE,160,2.0,-999.0,77,0.00,,,0.00,Wunderground v.1.15,2013-12-10 01:06:00,
2013-12-09 19:11:00,1.9,-3.7,30.30,SSE,165,4.0,-999.0,77,0.00,,,0.00,Wunderground v.1.15,2013-12-10 01:11:00,
2013-12-09 19:16:00,1.9,-3.4,30.30,South,176,4.0,-999.0,78,0.00,,,0.00,Wunderground v.1.15,2013-12-10 01:16:00,
2013-12-09 19:21:00,2.3,-3.0,30.30,South,172,5.0,-999.0,78,0.00,,,0.00,Wunderground v.1.15,2013-12-10 01:21:00,
2013-12-09 19:26:00,2.6,-3.0,30.30,SSE,155,5.0,-999.0,77,0.00,,,0.00,Wunderground v.1.15,2013-12-10 01:26:00,
2013-12-09 19:31:00,3.1,-2.2,30.30,South,181,5.0,-999.0,78,0.00,,,0.00,Wunderground v.1.15,2013-12-10 01:31:00,
2013-12-09 19:36:00,3.4,-2.2,30.30,SSE,155,6.0,-999.0,77,0.00,,,0.00,Wunderground v.1.15,2013-12-10 01:36:00,
2013-12-09 19:41:00,3.5,-2.4,30.30,SSE,165,7.0,-999.0,76,0.00,,,0.00,Wunderground v.1.15,2013-12-10 01:41:00,
2013-12-09 19:46:00,3.7,-2.2,30.30,SSE,159,4.0,-999.0,76,0.00,,,0.00,Wunderground v.1.15,2013-12-10 01:46:00,
2013-12-09 19:51:00,3.9,-1.7,30.29,SSE,166,5.0,-999.0,77,0.00,,,0.00,Wunderground v.1.15,2013-12-10 01:51:00,
2013-12-09 19:56:00,3.9,-2.0,30.29,SSE,160,2.0,-999.0,76,0.00,,,0.00,Wunderground v.1.15,2013-12-10 01:56:00,
2013-12-09 20:01:00,3.8,-1.8,30.29,South,170,5.0,-999.0,77,0.00,,,0.00,Wunderground v.1.15,2013-12-10 02:01:00,
2013-12-09 20:06:00,3.9,-1.7,30.29,SSE,156,6.0,-999.0,77,0.00,,,0.00,Wunderground v.1.15,2013-12-10 02:06:00,
2013-12-09 20:11:00,3.7,-2.2,30.28,SSE,162,6.0,-999.0,76,0.00,,,0.00,Wunderground v.1.15,2013-12-10 02:11:00,
2013-12-09 20:16:00,3.6,-2.3,30.28,SSE,153,8.0,-999.0,76,0.00,,,0.00,Wunderground v.1.15,2013-12-10 02:16:00,
2013-12-09 20:21:00,3.8,-2.1,30.27,SSE,156,5.0,-999.0,76,0.00,,,0.00,Wunderground v.1.15,2013-12-10 02:21:00,
2013-12-09 20:26:00,4.1,-1.8,30.27,SSE,162,5.0,-999.0,76,0.00,,,0.00,Wunderground v.1.15,2013-12-10 02:26:00,
2013-12-09 20:31:00,4.4,-1.5,30.27,South,172,7.0,-999.0,76,0.00,,,0.00,Wunderground v.1.15,2013-12-10 02:31:00,
2013-12-09 20:36:00,4.6,-1.6,30.26,SSE,156,6.0,-999.0,75,0.00,,,0.00,Wunderground v.1.15,2013-12-10 02:36:00,
2013-12-09 20:41:00,4.8,-1.1,30.26,South,177,7.0,-999.0,76,0.00,,,0.00,Wunderground v.1.15,2013-12-10 02:41:00,
2013-12-09 20:46:00,5.0,-1.2,30.25,South,174,8.0,-999.0,75,0.00,,,0.00,Wunderground v.1.15,2013-12-10 02:46:00,
2013-12-09 20:51:00,4.9,-1.3,30.25,SSE,155,9.0,-999.0,75,0.00,,,0.00,Wunderground v.1.15,2013-12-10 02:51:00,
2013-12-09 20:56:00,4.7,-1.5,30.24,South,171,7.0,-999.0,75,0.00,,,0.00,Wunderground v.1.15,2013-12-10 02:56:00,
2013-12-09 21:01:00,4.9,-1.3,30.24,SSE,166,8.0,-999.0,75,0.00,,,0.00,Wunderground v.1.15,2013-12-10 03:01:00,
2013-12-09 21:06:00,5.2,-1.0,30.24,SSE,156,6.0,-999.0,75,0.00,,,0.00,Wunderground v.1.15,2013-12-10 03:06:00,
2013-12-09 21:11:00,5.6,-0.6,30.24,SSE,165,9.0,-999.0,75,0.00,,,0.00,Wunderground v.1.15,2013-12-10 03:11:00,
2013-12-09 21:16:00,6.0,-0.5,30.24,SSW,212,9.0,-999.0,74,0.00,,,0.00,Wunderground v.1.15,2013-12-10 03:16:00,
2013-12-09 21:21:00,6.2,-0.3,30.24,SSW,194,7.0,-999.0,74,0.00,,,0.00,Wunderground v.1.15,2013-12-10 03:21:00,
2013-12-09 21:26:00,6.5,0.0,30.24,SSE,160,13.0,-999.0,74,0.00,,,0.00,Wunderground v.1.15,2013-12-10 03:26:00,
2013-12-09 21:31:00,6.9,0.1,30.24,SSE,166,8.0,-999.0,73,0.00,,,0.00,Wunderground v.1.15,2013-12-10 03:31:00,
2013-12-09 21:36:00,7.2,0.4,30.24,South,172,7.0,-999.0,73,0.00,,,0.00,Wunderground v.1.15,2013-12-10 03:36:00,
2013-12-09 21:41:00,7.4,0.6,30.24,South,171,7.0,-999.0,73,0.00,,,0.00,Wunderground v.1.15,2013-12-10 03:41:00,
2013-12-09 21:46:00,7.5,0.4,30.24,SSE,160,9.0,-999.0,72,0.00,,,0.00,Wunderground v.1.15,2013-12-10 03:46:00,
2013-12-09 21:51:00,7.5,0.4,30.23,South,169,11.0,-999.0,72,0.00,,,0.00,Wunderground v.1.15,2013-12-10 03:51:00,
2013-12-09 21:56:00,7.4,0.6,30.23,South,181,9.0,-999.0,73,0.00,,,0.00,Wunderground v.1.15,2013-12-10 03:56:00,
2013-12-09 22:01:00,7.4,0.6,30.23,South,173,7.0,-999.0,73,0.00,,,0.00,Wunderground v.1.15,2013-12-10 04:01:00,
2013-12-09 22:06:00,7.4,0.6,30.22,SSW,193,6.0,-999.0,73,0.00,,,0.00,Wunderground v.1.15,2013-12-10 04:06:00,
2013-12-09 22:11:00,7.5,0.7,30.22,South,172,10.0,-999.0,73,0.00,,,0.00,Wunderground v.1.15,2013-12-10 04:11:00,
2013-12-09 22:16:00,7.6,0.7,30.21,SSE,160,3.0,-999.0,73,0.00,,,0.00,Wunderground v.1.15,2013-12-10 04:16:00,
2013-12-09 22:21:00,7.8,0.9,30.21,SSE,150,8.0,-999.0,73,0.00,,,0.00,Wunderground v.1.15,2013-12-10 04:21:00,
2013-12-09 22:26:00,7.8,0.9,30.21,SSE,156,5.0,-999.0,73,0.00,,,0.00,Wunderground v.1.15,2013-12-10 04:26:00,
2013-12-09 22:31:00,7.6,0.7,30.20,SSE,153,8.0,-999.0,73,0.00,,,0.00,Wunderground v.1.15,2013-12-10 04:31:00,
2013-12-09 22:36:00,7.9,1.3,30.20,South,174,10.0,-999.0,74,0.00,,,0.00,Wunderground v.1.15,2013-12-10 04:36:00,
2013-12-09 22:41:00,8.5,1.9,30.19,South,180,9.0,-999.0,74,0.00,,,0.00,Wunderground v.1.15,2013-12-10 04:41:00,
2013-12-09 22:46:00,9.2,2.6,30.19,SSE,160,6.0,-999.0,74,0.00,,,0.00,Wunderground v.1.15,2013-12-10 04:46:00,
2013-12-09 22:51:00,10.1,3.5,30.19,SSE,165,10.0,-999.0,74,0.00,,,0.00,Wunderground v.1.15,2013-12-10 04:51:00,
2013-12-09 22:56:00,10.9,3.6,30.19,SSE,156,9.0,-999.0,72,0.00,,,0.00,Wunderground v.1.15,2013-12-10 04:56:00,
2013-12-09 23:01:00,11.2,3.9,30.19,South,183,7.0,-999.0,72,0.00,,,0.00,Wunderground v.1.15,2013-12-10 05:01:00,
2013-12-09 23:06:00,11.5,3.9,30.18,South,183,10.0,-999.0,71,0.00,,,0.00,Wunderground v.1.15,2013-12-10 05:06:00,
2013-12-09 23:11:00,11.8,4.2,30.19,SSE,163,6.0,-999.0,71,0.00,,,0.00,Wunderground v.1.15,2013-12-10 05:11:00,
2013-12-09 23:16:00,11.9,4.3,30.19,South,191,9.0,-999.0,71,0.00,,,0.00,Wunderground v.1.15,2013-12-10 05:16:00,
2013-12-09 23:21:00,12.3,4.7,30.18,SSE,162,8.0,-999.0,71,0.00,,,0.00,Wunderground v.1.15,2013-12-10 05:21:00,
2013-12-09 23:26:00,12.7,4.8,30.18,South,174,10.0,-999.0,70,0.00,,,0.00,Wunderground v.1.15,2013-12-10 05:26:00,
2013-12-09 23:32:00,12.9,5.0,30.18,SSE,152,4.0,-999.0,70,0.00,,,0.00,Wunderground v.1.15,2013-12-10 05:32:00,
2013-12-09 23:37:00,12.9,5.0,30.18,South,176,10.0,-999.0,70,0.00,,,0.00,Wunderground v.1.15,2013-12-10 05:37:00,
2013-12-09 23:42:00,12.9,5.0,30.17,SSE,162,11.0,-999.0,70,0.00,,,0.00,Wunderground v.1.15,2013-12-10 05:42:00,
2013-12-09 23:47:00,12.9,5.0,30.18,South,187,8.0,-999.0,70,0.00,,,0.00,Wunderground v.1.15,2013-12-10 05:47:00,
2013-12-09 23:52:00,13.0,5.0,30.17,South,190,11.0,-999.0,70,0.00,,,0.00,Wunderground v.1.15,2013-12-10 05:52:00,
2013-12-09 23:57:00,13.1,5.1,30.17,South,171,7.0,-999.0,70,0.00,,,0.00,Wunderground v.1.15,2013-12-10 05:57:00,